createdAt,value
2018-09-25T00:00:45.207Z,79.80
2018-09-25T00:03:17.997Z,80.26
2018-09-25T00:05:50.897Z,80.45
2018-09-25T00:08:23.681Z,80.38
2018-09-25T00:10:56.485Z,79.93
2018-09-25T00:13:29.324Z,79.84
2018-09-25T00:16:02.234Z,79.89
2018-09-25T00:18:35.050Z,79.43
2018-09-25T00:21:07.799Z,80.02
2018-09-25T00:23:40.618Z,79.85
2018-09-25T00:26:13.429Z,79.55
2018-09-25T00:28:46.290Z,79.32
2018-09-25T00:31:19.213Z,79.13
2018-09-25T00:33:52.030Z,79.15
2018-09-25T00:36:24.882Z,79.37
2018-09-25T00:40:22.260Z,79.29
2018-09-25T00:42:55.197Z,79.78
2018-09-25T00:45:28.079Z,80.38
2018-09-25T00:48:00.982Z,80.52
2018-09-25T00:50:33.701Z,80.49
2018-09-25T00:53:06.545Z,80.13
2018-09-25T00:55:39.453Z,80.23
2018-09-25T00:58:12.262Z,80.59
2018-09-25T01:00:45.241Z,80.70
2018-09-25T01:03:18.027Z,80.90
2018-09-25T01:05:50.879Z,80.80
2018-09-25T01:08:23.635Z,80.40
2018-09-25T01:10:56.561Z,80.12
2018-09-25T01:13:29.360Z,79.87
2018-09-25T01:16:02.224Z,80.60
2018-09-25T01:18:35.052Z,80.89
2018-09-25T01:21:07.997Z,81.00
2018-09-25T01:23:40.752Z,80.97
2018-09-25T01:26:13.660Z,81.86
2018-09-25T01:28:46.350Z,81.18
2018-09-25T01:31:19.175Z,81.65
2018-09-25T01:33:51.977Z,80.74
2018-09-25T01:36:24.851Z,80.58
2018-09-25T01:38:57.633Z,80.87
2018-09-25T01:41:30.505Z,82.01
2018-09-25T01:44:03.355Z,81.94
2018-09-25T01:46:36.261Z,82.18
2018-09-25T01:50:33.607Z,81.78
2018-09-25T01:53:06.426Z,81.44
2018-09-25T01:55:39.332Z,81.19
2018-09-25T01:59:36.656Z,81.54
2018-09-25T02:02:09.623Z,82.03
2018-09-25T02:04:42.609Z,81.87
2018-09-25T02:10:51.204Z,82.35
2018-09-25T02:13:24.070Z,81.98
2018-09-25T02:15:57.051Z,82.17
2018-09-25T02:18:30.068Z,82.12
2018-09-25T02:21:03.040Z,81.60
2018-09-25T02:23:36.034Z,81.77
2018-09-25T02:26:08.861Z,81.36
2018-09-25T02:28:41.743Z,81.28
2018-09-25T02:31:14.709Z,81.95
2018-09-25T02:33:47.482Z,82.04
2018-09-25T02:36:20.570Z,81.98
2018-09-25T02:38:53.421Z,82.17
2018-09-25T02:41:26.320Z,82.24
2018-09-25T02:43:59.319Z,81.80
2018-09-25T02:46:32.258Z,82.19
2018-09-25T02:49:05.055Z,82.65
2018-09-25T02:51:37.964Z,82.43
2018-09-25T02:54:10.805Z,82.30
2018-09-25T02:56:43.703Z,81.76
2018-09-25T02:59:16.680Z,81.69
2018-09-25T03:01:49.577Z,81.73
2018-09-25T03:04:22.393Z,81.91
2018-09-25T03:06:55.350Z,82.28
2018-09-25T03:09:28.098Z,83.02
2018-09-25T03:12:01.069Z,82.66
2018-09-25T03:14:33.751Z,82.66
2018-09-25T03:17:06.685Z,82.58
2018-09-25T03:19:39.433Z,82.41
2018-09-25T03:22:12.304Z,82.65
2018-09-25T03:24:45.109Z,82.46
2018-09-25T03:27:18.156Z,81.59
2018-09-25T03:29:50.895Z,82.02
2018-09-25T03:32:23.842Z,82.19
2018-09-25T03:34:56.832Z,82.91
2018-09-25T03:37:29.857Z,82.60
2018-09-25T03:40:02.713Z,83.32
2018-09-25T03:42:35.657Z,83.31
2018-09-25T03:45:08.519Z,83.13
2018-09-25T03:47:41.500Z,83.69
2018-09-25T03:50:14.270Z,83.76
2018-09-25T03:52:47.158Z,83.86
2018-09-25T03:55:19.898Z,83.41
2018-09-25T03:57:52.610Z,83.13
2018-09-25T04:00:25.385Z,83.32
2018-09-25T04:02:58.346Z,83.02
2018-09-25T04:05:31.203Z,83.23
2018-09-25T04:08:04.086Z,83.39
2018-09-25T04:10:36.932Z,83.13
2018-09-25T04:13:09.812Z,83.95
2018-09-25T04:15:42.683Z,84.12
2018-09-25T04:18:15.566Z,83.90
2018-09-25T04:20:48.551Z,83.90
2018-09-25T04:23:21.414Z,84.10
2018-09-25T04:25:54.400Z,83.70
2018-09-25T04:28:27.191Z,83.66
2018-09-25T04:31:00.144Z,83.03
2018-09-25T04:33:32.925Z,82.99
2018-09-25T04:36:06.928Z,83.00
2018-09-25T04:38:39.876Z,81.73
2018-09-25T04:41:12.795Z,82.67
2018-09-25T04:43:45.624Z,82.74
2018-09-25T04:46:18.513Z,83.45
2018-09-25T04:48:51.451Z,83.54
2018-09-25T04:51:25.017Z,83.53
2018-09-25T04:53:58.071Z,83.29
2018-09-25T04:56:30.912Z,83.42
2018-09-25T04:59:03.763Z,83.41
2018-09-25T05:01:36.727Z,82.53
2018-09-25T05:04:09.496Z,82.23
2018-09-25T05:06:42.482Z,82.81
2018-09-25T05:10:39.888Z,83.00
2018-09-25T05:13:12.676Z,83.30
2018-09-25T05:18:23.889Z,83.47
2018-09-25T05:20:56.792Z,84.38
2018-09-25T05:23:29.772Z,84.37
2018-09-25T05:26:02.649Z,84.82
2018-09-25T05:28:35.442Z,84.18
2018-09-25T05:31:08.317Z,83.48
2018-09-25T05:33:41.036Z,83.42
2018-09-25T05:36:13.915Z,83.27
2018-09-25T05:38:46.729Z,83.83
2018-09-25T05:41:19.588Z,84.52
2018-09-25T05:43:52.630Z,84.98
2018-09-25T05:46:25.554Z,84.03
2018-09-25T05:48:58.487Z,84.31
2018-09-25T05:51:31.200Z,83.91
2018-09-25T05:54:03.907Z,83.99
2018-09-25T05:56:36.842Z,83.62
2018-09-25T05:59:09.622Z,83.65
2018-09-25T06:01:42.523Z,84.83
2018-09-25T06:04:15.368Z,81.47
2018-09-25T06:06:48.358Z,82.01
2018-09-25T06:09:21.204Z,81.91
2018-09-25T06:11:53.936Z,82.17
2018-09-25T06:14:26.937Z,82.42
2018-09-25T06:16:59.899Z,82.48
2018-09-25T06:19:32.778Z,81.45
2018-09-25T06:22:05.675Z,81.36
2018-09-25T06:24:38.697Z,82.94
2018-09-25T06:27:11.672Z,83.30
2018-09-25T06:29:44.551Z,84.49
2018-09-25T06:32:17.413Z,84.07
2018-09-25T06:34:50.356Z,83.71
2018-09-25T06:37:23.366Z,83.04
2018-09-25T06:39:56.170Z,82.72
2018-09-25T06:42:29.037Z,82.93
2018-09-25T06:45:01.969Z,82.08
2018-09-25T06:47:34.623Z,81.52
2018-09-25T06:50:07.430Z,80.87
2018-09-25T06:52:40.387Z,80.15
2018-09-25T06:55:13.223Z,75.84
2018-09-25T06:57:45.937Z,72.07
2018-09-25T07:00:19.072Z,67.97
2018-09-25T07:02:51.973Z,64.91
2018-09-25T07:05:24.793Z,63.17
2018-09-25T07:07:57.714Z,60.53
2018-09-25T07:10:30.805Z,60.05
2018-09-25T07:13:03.510Z,58.59
2018-09-25T07:15:36.291Z,58.92
2018-09-25T07:18:09.221Z,59.02
2018-09-25T07:20:42.112Z,61.82
2018-09-25T07:23:14.895Z,61.99
2018-09-25T07:25:47.747Z,58.79
2018-09-25T07:28:20.518Z,56.46
2018-09-25T07:30:53.438Z,53.90
2018-09-25T07:33:26.188Z,53.48
2018-09-25T07:35:59.431Z,52.61
2018-09-25T07:38:32.294Z,51.87
2018-09-25T07:41:05.232Z,50.39
2018-09-25T07:43:38.184Z,51.50
2018-09-25T07:46:11.393Z,52.67
2018-09-25T07:48:44.184Z,50.47
2018-09-25T07:51:17.122Z,54.38
2018-09-25T07:53:49.922Z,55.32
2018-09-25T07:56:22.849Z,55.62
2018-09-25T07:58:55.780Z,55.94
2018-09-25T08:01:28.693Z,56.56
2018-09-25T08:04:01.495Z,57.78
2018-09-25T08:06:34.436Z,60.18
2018-09-25T08:09:07.241Z,58.49
2018-09-25T08:11:40.170Z,53.29
2018-09-25T08:14:12.943Z,50.25
2018-09-25T08:16:45.963Z,50.38
2018-09-25T08:19:18.722Z,53.92
2018-09-25T08:21:51.583Z,53.71
2018-09-25T08:24:24.343Z,50.85
2018-09-25T08:26:57.280Z,50.63
2018-09-25T08:29:30.009Z,50.59
2018-09-25T08:32:03.043Z,49.49
2018-09-25T08:34:35.789Z,48.26
2018-09-25T08:37:08.628Z,47.56
2018-09-25T08:39:41.466Z,52.63
2018-09-25T08:42:14.349Z,55.49
2018-09-25T08:44:47.135Z,55.62
2018-09-25T08:47:20.189Z,52.47
2018-09-25T08:49:53.271Z,54.35
2018-09-25T08:52:26.115Z,55.75
2018-09-25T08:54:58.887Z,55.25
2018-09-25T08:57:31.777Z,55.18
2018-09-25T09:00:04.610Z,54.40
2018-09-25T09:02:37.575Z,54.18
2018-09-25T09:05:10.390Z,58.12
2018-09-25T09:07:43.089Z,58.68
2018-09-25T09:10:15.845Z,56.90
2018-09-25T09:12:48.788Z,54.19
2018-09-25T09:15:21.599Z,51.93
2018-09-25T09:17:54.559Z,53.45
2018-09-25T09:20:27.419Z,52.07
2018-09-25T09:23:00.432Z,53.31
2018-09-25T09:25:33.190Z,50.38
2018-09-25T09:28:06.052Z,49.12
2018-09-25T09:30:38.869Z,46.94
2018-09-25T09:33:11.763Z,45.65
2018-09-25T09:35:45.464Z,42.57
2018-09-25T09:38:18.284Z,43.25
2018-09-25T09:40:51.242Z,45.71
2018-09-25T09:43:24.270Z,45.25
2018-09-25T09:45:57.164Z,43.36
2018-09-25T09:48:29.987Z,42.72
2018-09-25T09:51:02.907Z,41.51
2018-09-25T09:53:35.911Z,39.04
2018-09-25T09:56:08.693Z,36.58
2018-09-25T09:58:41.730Z,36.08
2018-09-25T10:01:14.671Z,34.64
2018-09-25T10:03:47.756Z,34.99
2018-09-25T10:06:20.652Z,33.90
2018-09-25T10:08:53.618Z,33.66
2018-09-25T10:11:26.457Z,33.58
2018-09-25T10:13:59.239Z,33.72
2018-09-25T10:16:32.229Z,34.04
2018-09-25T10:19:05.227Z,33.74
2018-09-25T10:21:38.209Z,35.42
2018-09-25T10:24:11.286Z,37.38
2018-09-25T10:26:44.275Z,39.73
2018-09-25T10:29:17.197Z,40.42
2018-09-25T10:31:50.122Z,41.72
2018-09-25T10:34:22.938Z,40.54
2018-09-25T10:36:55.873Z,40.63
2018-09-25T10:39:28.666Z,39.21
2018-09-25T10:42:01.603Z,37.24
2018-09-25T10:44:34.360Z,34.80
2018-09-25T10:47:07.258Z,33.39
2018-09-25T10:49:40.056Z,32.25
2018-09-25T10:52:12.984Z,34.41
2018-09-25T10:54:45.708Z,31.94
2018-09-25T10:57:18.683Z,32.80
2018-09-25T10:59:51.485Z,33.36
2018-09-25T11:02:24.611Z,34.38
2018-09-25T11:04:57.480Z,34.63
2018-09-25T11:07:30.447Z,33.05
2018-09-25T11:10:03.304Z,33.93
2018-09-25T11:12:36.196Z,33.74
2018-09-25T11:15:09.243Z,36.34
2018-09-25T11:17:43.221Z,34.66
2018-09-25T11:20:16.055Z,34.31
2018-09-25T11:22:49.021Z,35.78
2018-09-25T11:25:21.818Z,35.18
2018-09-25T11:27:54.811Z,37.38
2018-09-25T11:30:27.729Z,35.88
2018-09-25T11:33:00.668Z,37.39
2018-09-25T11:35:33.417Z,40.36
2018-09-25T11:38:06.431Z,38.51
2018-09-25T11:40:39.388Z,35.90
2018-09-25T11:43:12.400Z,33.39
2018-09-25T11:45:45.292Z,31.95
2018-09-25T11:48:18.243Z,33.11
2018-09-25T11:50:51.163Z,32.85
2018-09-25T11:53:23.935Z,33.62
2018-09-25T11:55:56.794Z,34.45
2018-09-25T11:58:29.531Z,33.98
2018-09-25T12:01:02.422Z,33.87
2018-09-25T12:03:35.481Z,33.69
2018-09-25T12:06:08.316Z,35.21
2018-09-25T12:08:41.146Z,35.10
2018-09-25T12:11:13.990Z,34.72
2018-09-25T12:13:46.858Z,36.97
2018-09-25T12:16:19.718Z,36.54
2018-09-25T12:18:52.528Z,36.96
2018-09-25T12:21:25.392Z,36.91
2018-09-25T12:23:58.106Z,34.57
2018-09-25T12:26:31.028Z,34.26
2018-09-25T12:29:04.016Z,35.06
2018-09-25T12:31:36.922Z,33.70
2018-09-25T12:34:09.695Z,33.85
2018-09-25T12:36:42.691Z,33.36
2018-09-25T12:39:15.472Z,32.30
2018-09-25T12:41:48.366Z,33.63
2018-09-25T12:44:21.097Z,32.27
2018-09-25T12:46:54.060Z,34.49
2018-09-25T12:49:26.863Z,34.03
2018-09-25T12:51:59.737Z,33.42
2018-09-25T12:54:32.561Z,32.30
2018-09-25T12:57:05.463Z,31.66
2018-09-25T12:59:38.209Z,32.54
2018-09-25T13:02:11.127Z,31.52
2018-09-25T13:04:43.944Z,31.87
2018-09-25T13:07:16.918Z,32.38
2018-09-25T13:09:49.678Z,31.65
2018-09-25T13:12:22.653Z,32.58
2018-09-25T13:14:55.484Z,31.45
2018-09-25T13:17:28.402Z,34.31
2018-09-25T13:20:01.229Z,33.96
2018-09-25T13:22:34.096Z,33.09
2018-09-25T13:25:06.925Z,32.32
2018-09-25T13:27:39.809Z,31.65
2018-09-25T13:30:12.933Z,32.75
2018-09-25T13:32:45.785Z,31.90
2018-09-25T13:35:18.610Z,31.50
2018-09-25T13:37:51.545Z,31.36
2018-09-25T13:40:24.354Z,33.14
2018-09-25T13:42:57.937Z,34.25
2018-09-25T13:45:30.829Z,34.71
2018-09-25T13:48:03.617Z,34.08
2018-09-25T13:50:36.318Z,33.50
2018-09-25T13:53:09.144Z,33.86
2018-09-25T13:55:42.009Z,34.24
2018-09-25T13:58:14.760Z,33.94
2018-09-25T14:00:47.693Z,32.70
2018-09-25T14:03:20.701Z,31.84
2018-09-25T14:05:53.670Z,31.41
2018-09-25T14:08:26.414Z,31.15
2018-09-25T14:10:59.368Z,30.09
2018-09-25T14:13:32.192Z,31.71
2018-09-25T14:16:05.091Z,30.88
2018-09-25T14:18:37.902Z,31.06
2018-09-25T14:21:10.653Z,31.23
2018-09-25T14:23:43.634Z,30.62
2018-09-25T14:26:16.525Z,33.33
2018-09-25T14:28:49.341Z,32.57
2018-09-25T14:31:22.252Z,32.78
2018-09-25T14:33:55.198Z,32.03
2018-09-25T14:36:28.127Z,31.74
2018-09-25T14:39:00.862Z,30.03
2018-09-25T14:41:33.810Z,33.04
2018-09-25T14:44:06.702Z,32.95
2018-09-25T14:46:39.623Z,32.62
2018-09-25T14:49:12.369Z,31.18
2018-09-25T14:51:45.225Z,30.85
2018-09-25T14:54:18.183Z,31.40
2018-09-25T14:56:51.032Z,30.30
2018-09-25T14:59:23.823Z,31.48
2018-09-25T15:01:56.682Z,30.47
2018-09-25T15:04:29.496Z,30.79
2018-09-25T15:07:02.331Z,32.66
2018-09-25T15:09:34.991Z,33.65
2018-09-25T15:12:08.796Z,32.66
2018-09-25T15:14:41.569Z,32.34
2018-09-25T15:17:14.453Z,32.38
2018-09-25T15:19:47.149Z,31.61
2018-09-25T15:22:20.336Z,31.88
2018-09-25T15:24:53.072Z,31.35
2018-09-25T15:27:26.016Z,31.46
2018-09-25T15:29:58.925Z,30.77
2018-09-25T15:32:31.847Z,30.71
2018-09-25T15:35:04.648Z,30.92
2018-09-25T15:37:37.520Z,30.14
2018-09-25T15:40:10.582Z,30.89
2018-09-25T15:42:43.530Z,29.81
2018-09-25T15:45:16.591Z,31.79
2018-09-25T15:47:49.557Z,30.80
2018-09-25T15:50:22.298Z,31.54
2018-09-25T15:52:55.007Z,31.79
2018-09-25T15:55:27.787Z,32.08
2018-09-25T15:58:00.656Z,33.53
2018-09-25T16:00:33.364Z,33.24
2018-09-25T16:03:06.196Z,35.03
2018-09-25T16:05:39.114Z,33.46
2018-09-25T16:08:12.020Z,33.62
2018-09-25T16:10:44.899Z,34.65
2018-09-25T16:13:17.877Z,33.81
2018-09-25T16:15:50.811Z,32.54
2018-09-25T16:18:23.537Z,34.23
2018-09-25T16:20:56.333Z,34.84
2018-09-25T16:23:29.108Z,33.43
2018-09-25T16:26:02.042Z,34.28
2018-09-25T16:28:34.829Z,35.19
2018-09-25T16:31:07.692Z,36.15
2018-09-25T16:33:40.477Z,36.13
2018-09-25T16:36:13.944Z,35.85
2018-09-25T16:38:46.700Z,36.32
2018-09-25T16:41:19.592Z,36.88
2018-09-25T16:43:52.338Z,37.15
2018-09-25T16:46:25.241Z,37.16
2018-09-25T16:48:57.969Z,37.51
2018-09-25T16:51:30.825Z,37.83
2018-09-25T16:54:03.663Z,39.49
2018-09-25T16:56:36.462Z,38.97
2018-09-25T16:59:09.384Z,38.91
2018-09-25T17:01:42.306Z,39.79
2018-09-25T17:04:15.137Z,39.00
2018-09-25T17:06:48.063Z,38.95
2018-09-25T17:09:20.808Z,40.22
2018-09-25T17:11:53.537Z,40.12
2018-09-25T17:14:26.340Z,40.19
2018-09-25T17:16:59.302Z,40.82
2018-09-25T17:19:32.227Z,40.85
2018-09-25T17:22:05.220Z,41.30
2018-09-25T17:24:37.967Z,41.94
2018-09-25T17:27:10.853Z,42.87
2018-09-25T17:29:43.638Z,42.53
2018-09-25T17:32:16.557Z,42.78
2018-09-25T17:34:49.445Z,43.43
2018-09-25T17:37:22.247Z,43.73
2018-09-25T17:39:55.060Z,44.17
2018-09-25T17:42:28.060Z,44.72
2018-09-25T17:45:00.993Z,44.90
2018-09-25T17:47:33.929Z,45.38
2018-09-25T17:50:06.701Z,46.40
2018-09-25T17:52:39.371Z,46.80
2018-09-25T17:55:12.333Z,47.05
2018-09-25T17:57:45.266Z,47.48
2018-09-25T18:00:17.976Z,47.61
2018-09-25T18:02:50.859Z,47.51
2018-09-25T18:05:23.593Z,48.19
2018-09-25T18:07:56.442Z,48.11
2018-09-25T18:10:29.344Z,48.25
2018-09-25T18:13:02.163Z,48.73
2018-09-25T18:15:34.919Z,48.65
2018-09-25T18:18:07.871Z,49.07
2018-09-25T18:20:40.842Z,49.35
2018-09-25T18:23:13.572Z,49.38
2018-09-25T18:25:46.484Z,49.43
2018-09-25T18:28:19.436Z,48.97
2018-09-25T18:30:52.200Z,49.18
2018-09-25T18:33:25.101Z,49.39
2018-09-25T18:35:58.461Z,49.48
2018-09-25T18:38:31.414Z,50.13
2018-09-25T18:41:04.360Z,50.16
2018-09-25T18:43:37.202Z,49.94
2018-09-25T18:46:10.097Z,50.01
2018-09-25T18:48:42.909Z,50.71
2018-09-25T18:51:15.758Z,50.29
2018-09-25T18:53:48.632Z,51.21
2018-09-25T18:56:21.619Z,51.22
2018-09-25T18:58:54.597Z,51.09
2018-09-25T19:01:27.553Z,51.81
2018-09-25T19:04:00.311Z,52.40
2018-09-25T19:06:33.162Z,52.21
2018-09-25T19:09:06.131Z,52.19
2018-09-25T19:11:39.070Z,52.46
2018-09-25T19:14:11.872Z,51.91
2018-09-25T19:16:44.702Z,52.69
2018-09-25T19:19:17.528Z,52.33
2018-09-25T19:21:50.492Z,52.45
2018-09-25T19:24:23.226Z,52.76
2018-09-25T19:26:56.136Z,52.89
2018-09-25T19:29:29.050Z,53.86
2018-09-25T19:32:01.978Z,53.68
2018-09-25T19:34:34.809Z,53.15
2018-09-25T19:37:07.673Z,53.34
2018-09-25T19:39:40.470Z,51.95
2018-09-25T19:42:13.427Z,53.14
2018-09-25T19:44:46.403Z,53.36
2018-09-25T19:47:19.296Z,53.45
2018-09-25T19:49:52.055Z,53.33
2018-09-25T19:52:25.008Z,53.43
2018-09-25T19:54:57.730Z,53.75
2018-09-25T19:57:30.502Z,54.18
2018-09-25T20:00:03.408Z,53.69
2018-09-25T20:02:36.267Z,53.94
2018-09-25T20:05:09.304Z,54.39
2018-09-25T20:07:42.214Z,54.02
2018-09-25T20:10:15.090Z,53.37
2018-09-25T20:12:47.994Z,53.52
2018-09-25T20:15:20.844Z,54.33
2018-09-25T20:17:53.752Z,54.44
2018-09-25T20:20:26.553Z,54.30
2018-09-25T20:22:59.426Z,54.37
2018-09-25T20:25:32.208Z,54.34
2018-09-25T20:28:05.109Z,55.14
2018-09-25T20:30:37.960Z,54.50
2018-09-25T20:33:10.996Z,54.38
2018-09-25T20:35:43.841Z,54.52
2018-09-25T20:38:16.651Z,55.26
2018-09-25T20:40:49.360Z,55.66
2018-09-25T20:43:22.171Z,54.92
2018-09-25T20:45:55.066Z,55.26
2018-09-25T20:48:27.855Z,54.70
2018-09-25T20:51:00.805Z,55.50
2018-09-25T20:53:33.647Z,55.39
2018-09-25T20:56:06.534Z,56.35
2018-09-25T20:58:39.319Z,56.13
2018-09-25T21:01:12.276Z,56.51
2018-09-25T21:03:45.075Z,56.17
2018-09-25T21:06:17.928Z,56.15
2018-09-25T21:08:50.688Z,56.63
2018-09-25T21:11:23.567Z,57.42
2018-09-25T21:13:56.549Z,58.16
2018-09-25T21:16:29.458Z,58.68
2018-09-25T21:19:02.186Z,58.87
2018-09-25T21:21:35.039Z,58.78
2018-09-25T21:24:07.820Z,58.82
2018-09-25T21:26:40.639Z,58.78
2018-09-25T21:29:13.527Z,59.24
2018-09-25T21:31:46.411Z,60.26
2018-09-25T21:34:19.380Z,60.68
2018-09-25T21:36:52.298Z,60.79
2018-09-25T21:39:25.194Z,61.40
2018-09-25T21:41:58.107Z,62.42
2018-09-25T21:44:31.068Z,62.40
2018-09-25T21:47:03.963Z,61.82
2018-09-25T21:49:36.712Z,62.40
2018-09-25T21:52:09.647Z,62.15
2018-09-25T21:54:42.772Z,61.77
2018-09-25T21:57:23.683Z,61.07
2018-09-25T21:59:56.615Z,61.22
2018-09-25T22:02:29.424Z,61.55
2018-09-25T22:05:02.437Z,62.34
2018-09-25T22:07:35.373Z,62.49
2018-09-25T22:10:08.169Z,62.59
2018-09-25T22:12:41.089Z,62.84
2018-09-25T22:15:13.882Z,62.67
2018-09-25T22:17:46.528Z,61.96
2018-09-25T22:20:19.248Z,61.35
2018-09-25T22:22:52.168Z,61.49
2018-09-25T22:25:25.021Z,61.39
2018-09-25T22:27:57.913Z,62.03
2018-09-25T22:30:30.759Z,61.90
2018-09-25T22:33:03.531Z,63.04
2018-09-25T22:35:36.334Z,61.87
2018-09-25T22:38:09.199Z,62.79
2018-09-25T22:40:42.101Z,63.76
2018-09-25T22:43:14.872Z,64.06
2018-09-25T22:45:47.763Z,62.37
2018-09-25T22:48:20.484Z,62.38
2018-09-25T22:50:53.437Z,63.26
2018-09-25T22:53:26.138Z,64.17
2018-09-25T22:55:59.034Z,64.91
2018-09-25T22:58:31.766Z,63.81
2018-09-25T23:01:04.681Z,64.06
2018-09-25T23:03:37.421Z,64.20
2018-09-25T23:06:10.369Z,64.83
2018-09-25T23:08:43.242Z,64.49
2018-09-25T23:11:16.178Z,64.27
2018-09-25T23:13:48.984Z,63.73
2018-09-25T23:16:21.933Z,63.77
2018-09-25T23:18:54.750Z,65.10
2018-09-25T23:21:27.684Z,65.12
2018-09-25T23:24:00.478Z,65.21
2018-09-25T23:26:33.457Z,65.46
2018-09-25T23:29:06.434Z,64.98
2018-09-25T23:31:39.203Z,65.43
2018-09-25T23:34:11.957Z,65.58
2018-09-25T23:36:45.038Z,66.80
2018-09-25T23:39:17.773Z,66.15
2018-09-25T23:41:52.510Z,65.80
2018-09-25T23:44:25.524Z,65.89
2018-09-25T23:47:28.588Z,65.88
2018-09-25T23:50:03.639Z,65.83
2018-09-25T23:52:43.169Z,66.45
2018-09-25T23:56:17.916Z,66.47
2018-09-25T23:58:49.834Z,66.07
